Time;durP1;ratioP1;P1;durP2;ratioP2;P2;SDS_P1;SDS_P2;PMS_P1;PMS_P2;Temp;Humidity;BMP_temperature;BMP_pressure;BME280_temperature;BME280_humidity;BME280_pressure;Samples;Min_cycle;Max_cycle;Signal;HPM_P1;HPM_P2
2021/04/14 06:05:56;;;;;;;3.17;2.42;;;;;;;;;;5067150;28;20392;-67
2021/04/14 06:08:22;;;;;;;3.22;2.58;;;;;;;;;;5071201;28;20112;-67
2021/04/14 06:10:47;;;;;;;2.60;2.22;;;;;;;;;;5071951;28;20055;-67
2021/04/14 06:13:13;;;;;;;2.55;2.33;;;;;;;;;;5068176;28;20028;-69
2021/04/14 06:15:39;;;;;;;2.65;2.13;;;;;;;;;;5073722;28;20019;-68
2021/04/14 06:18:04;;;;;;;2.60;2.40;;;;;;;;;;5062060;28;20019;-68
2021/04/14 06:20:31;;;;;;;2.40;2.20;;;;;;;;;;5066419;28;20458;-67
2021/04/14 06:22:59;;;;;;;2.55;2.05;;;;;;;;;;5046247;28;20024;-66
2021/04/14 06:25:25;;;;;;;2.25;2.00;;;;;;;;;;5056291;28;20120;-67
2021/04/14 06:30:18;;;;;;;2.67;2.25;;;;;;;;;;5048087;28;20028;-66
2021/04/14 06:32:43;;;;;;;3.15;2.38;;;;;;;;;;5046245;28;20021;-66
2021/04/14 06:35:09;;;;;;;2.28;1.80;;;;;;;;;;5097311;28;20017;-65
2021/04/14 06:37:35;;;;;;;2.90;2.35;;;;;;;;;;5058226;28;20445;-66
2021/04/14 06:40:18;;;;;;;3.47;3.17;;;;;;;;;;5063811;28;20477;-67
2021/04/14 06:42:54;;;;;;;6.13;4.97;;;;;;;;;;5068013;28;20030;-67
2021/04/14 06:45:22;;;;;;;3.75;3.45;;;;;;;;;;5066544;28;20031;-67
2021/04/14 06:47:54;;;;;;;6.72;4.70;;;;;;;;;;5052280;28;20047;-67
2021/04/14 06:50:20;;;;;;;6.22;4.65;;;;;;;;;;5062975;28;20028;-67
2021/04/14 06:52:53;;;;;;;6.57;5.20;;;;;;;;;;5061593;28;20031;-67
2021/04/14 06:55:23;;;;;;;4.82;4.10;;;;;;;;;;5065810;28;20005;-67
2021/04/14 06:57:53;;;;;;;4.90;3.50;;;;;;;;;;5063733;28;20480;-67
2021/04/14 07:00:23;;;;;;;4.15;3.30;;;;;;;;;;5067112;28;20009;-67
2021/04/14 07:02:56;;;;;;;3.65;3.35;;;;;;;;;;5062912;28;20012;-66
2021/04/14 07:05:25;;;;;;;4.00;3.60;;;;;;;;;;5069850;28;20099;-66
2021/04/14 07:07:52;;;;;;;4.53;4.13;;;;;;;;;;5064574;28;20143;-66
2021/04/14 07:10:21;;;;;;;4.43;3.65;;;;;;;;;;5037020;28;20021;-67
2021/04/14 07:12:46;;;;;;;3.97;3.53;;;;;;;;;;5064661;28;20020;-66
2021/04/14 07:15:17;;;;;;;3.85;3.35;;;;;;;;;;5045705;28;20036;-66
2021/04/14 07:17:46;;;;;;;6.90;3.72;;;;;;;;;;5030760;28;20079;-67
2021/04/14 07:20:13;;;;;;;4.82;3.78;;;;;;;;;;5070073;28;20166;-67
2021/04/14 07:22:40;;;;;;;8.55;4.07;;;;;;;;;;5039375;28;20398;-65
2021/04/14 07:25:07;;;;;;;5.30;4.18;;;;;;;;;;5046190;28;20028;-68
2021/04/14 07:27:40;;;;;;;4.50;3.88;;;;;;;;;;5047164;28;20022;-69
2021/04/14 07:30:08;;;;;;;5.55;3.63;;;;;;;;;;5038408;28;20013;-69
2021/04/14 07:32:35;;;;;;;4.35;3.50;;;;;;;;;;5051971;28;20095;-66
2021/04/14 07:35:00;;;;;;;4.22;3.50;;;;;;;;;;5056165;28;20466;-65
2021/04/14 07:37:26;;;;;;;6.50;3.58;;;;;;;;;;5058377;28;20040;-66
2021/04/14 07:39:58;;;;;;;5.15;3.42;;;;;;;;;;5056843;28;20126;-65
2021/04/14 07:42:33;;;;;;;3.42;2.95;;;;;;;;;;5055784;28;20021;-66
2021/04/14 07:45:06;;;;;;;3.55;3.10;;;;;;;;;;5030816;28;20041;-67
2021/04/14 07:47:32;;;;;;;4.43;3.55;;;;;;;;;;5029812;28;20444;-67
2021/04/14 07:49:58;;;;;;;4.47;3.55;;;;;;;;;;5048593;28;20017;-67
2021/04/14 07:52:25;;;;;;;5.38;3.45;;;;;;;;;;5047332;28;20031;-67
2021/04/14 07:54:52;;;;;;;5.25;3.30;;;;;;;;;;5031064;28;20460;-67
2021/04/14 07:57:28;;;;;;;4.30;3.50;;;;;;;;;;5043154;28;20031;-67
2021/04/14 07:59:53;;;;;;;6.78;3.53;;;;;;;;;;5050488;28;20016;-65
2021/04/14 08:02:28;;;;;;;4.72;3.47;;;;;;;;;;5035535;28;20029;-73
2021/04/14 08:05:03;;;;;;;4.85;3.72;;;;;;;;;;5061060;28;20059;-72
2021/04/14 08:07:34;;;;;;;3.97;3.58;;;;;;;;;;5059806;28;20049;-67
2021/04/14 08:10:03;;;;;;;3.47;3.17;;;;;;;;;;5051454;28;20347;-66
2021/04/14 08:12:30;;;;;;;4.35;3.75;;;;;;;;;;5046260;28;20090;-67
2021/04/14 08:15:05;;;;;;;5.85;4.38;;;;;;;;;;5044416;28;20049;-66
2021/04/14 08:17:30;;;;;;;3.97;3.58;;;;;;;;;;5033906;28;20085;-65
2021/04/14 08:19:57;;;;;;;5.13;4.63;;;;;;;;;;5068118;28;20029;-66
2021/04/14 08:22:24;;;;;;;7.55;4.80;;;;;;;;;;5039420;28;20033;-67
2021/04/14 08:24:49;;;;;;;4.82;4.00;;;;;;;;;;5054572;28;20029;-67
2021/04/14 08:27:16;;;;;;;7.18;5.35;;;;;;;;;;5041992;28;20532;-66
2021/04/14 08:29:42;;;;;;;9.63;4.88;;;;;;;;;;5059196;28;20473;-67
2021/04/14 08:32:12;;;;;;;6.00;5.00;;;;;;;;;;5060164;28;20031;-66
2021/04/14 08:34:38;;;;;;;7.07;5.47;;;;;;;;;;5046349;28;20036;-67
2021/04/14 08:37:14;;;;;;;8.00;5.82;;;;;;;;;;5039798;28;20052;-69
2021/04/14 08:39:47;;;;;;;8.45;5.63;;;;;;;;;;5036392;28;20024;-65
2021/04/14 08:42:25;;;;;;;9.43;5.57;;;;;;;;;;5076031;28;20016;-66
2021/04/14 08:44:53;;;;;;;6.00;4.57;;;;;;;;;;5049939;28;20036;-66
2021/04/14 08:47:28;;;;;;;6.55;4.80;;;;;;;;;;5038501;28;20024;-66
2021/04/14 08:49:57;;;;;;;6.68;5.38;;;;;;;;;;5037066;28;20021;-63
2021/04/14 08:52:22;;;;;;;7.80;5.53;;;;;;;;;;5049951;28;20013;-66
2021/04/14 08:54:48;;;;;;;8.13;4.30;;;;;;;;;;5051487;28;20044;-66
2021/04/14 08:57:15;;;;;;;5.22;4.53;;;;;;;;;;5050666;28;20028;-66
2021/04/14 08:59:41;;;;;;;6.53;5.15;;;;;;;;;;5037269;28;20441;-65
2021/04/14 09:02:07;;;;;;;7.00;5.35;;;;;;;;;;5050691;28;20019;-65
2021/04/14 09:04:33;;;;;;;5.55;4.90;;;;;;;;;;5044286;28;20049;-68
2021/04/14 09:06:59;;;;;;;5.25;4.75;;;;;;;;;;5045377;28;20040;-69
2021/04/14 09:09:28;;;;;;;6.45;4.85;;;;;;;;;;5047246;28;20012;-69
2021/04/14 09:12:03;;;;;;;5.88;4.05;;;;;;;;;;5047419;28;20386;-67
2021/04/14 09:14:30;;;;;;;5.15;4.50;;;;;;;;;;5045353;28;20703;-68
2021/04/14 09:16:58;;;;;;;6.20;3.88;;;;;;;;;;5042744;28;20037;-70
2021/04/14 09:19:33;;;;;;;5.30;4.43;;;;;;;;;;5049078;28;20023;-73
2021/04/14 09:22:01;;;;;;;5.03;4.38;;;;;;;;;;5046481;28;20104;-70
2021/04/14 09:24:29;;;;;;;4.63;3.90;;;;;;;;;;5048088;28;20036;-68
2021/04/14 09:26:56;;;;;;;6.07;4.22;;;;;;;;;;5043513;28;20033;-67
2021/04/14 09:29:26;;;;;;;4.80;4.30;;;;;;;;;;5036990;28;20021;-68
2021/04/14 09:31:53;;;;;;;4.50;4.10;;;;;;;;;;5038052;28;20108;-69
2021/04/14 09:34:18;;;;;;;4.18;3.78;;;;;;;;;;5051753;28;20009;-70
2021/04/14 09:36:50;;;;;;;5.53;3.35;;;;;;;;;;5050461;28;20082;-69
2021/04/14 09:39:26;;;;;;;4.55;3.75;;;;;;;;;;5034318;28;20092;-69
2021/04/14 09:41:52;;;;;;;5.03;4.10;;;;;;;;;;5051175;28;20056;-69
2021/04/14 09:44:31;;;;;;;5.30;4.05;;;;;;;;;;5051949;28;20426;-70
2021/04/14 09:47:08;;;;;;;4.73;4.23;;;;;;;;;;5033897;28;20485;-70
2021/04/14 09:49:37;;;;;;;4.75;3.90;;;;;;;;;;5050486;28;20281;-70
2021/04/14 09:52:03;;;;;;;6.60;4.60;;;;;;;;;;5051008;28;20020;-70
2021/04/14 09:54:31;;;;;;;5.53;4.82;;;;;;;;;;5052301;28;20345;-68
2021/04/14 09:56:59;;;;;;;6.43;4.72;;;;;;;;;;5034465;28;20032;-68
2021/04/14 09:59:28;;;;;;;7.28;4.60;;;;;;;;;;5035039;28;20032;-68
2021/04/14 10:01:59;;;;;;;5.90;5.03;;;;;;;;;;5040136;28;20021;-69
2021/04/14 10:04:25;;;;;;;5.72;4.60;;;;;;;;;;5054829;28;20048;-70
2021/04/14 10:06:54;;;;;;;6.13;4.85;;;;;;;;;;5047243;28;20021;-67
2021/04/14 10:09:20;;;;;;;6.28;5.32;;;;;;;;;;5043736;28;20053;-70
2021/04/14 10:11:45;;;;;;;8.10;5.28;;;;;;;;;;5044791;28;20410;-69
2021/04/14 10:14:12;;;;;;;5.35;4.68;;;;;;;;;;5041432;28;20013;-68
2021/04/14 10:16:38;;;;;;;6.13;4.93;;;;;;;;;;5034784;28;20049;-70
2021/04/14 10:19:05;;;;;;;6.95;4.93;;;;;;;;;;5043714;28;20033;-68
2021/04/14 10:21:33;;;;;;;5.95;4.80;;;;;;;;;;5024445;28;20029;-70
2021/04/14 10:24:02;;;;;;;4.72;4.05;;;;;;;;;;5040938;28;20373;-69
2021/04/14 10:26:30;;;;;;;5.28;4.30;;;;;;;;;;5040012;28;20104;-71
2021/04/14 10:28:58;;;;;;;5.70;4.35;;;;;;;;;;5039506;28;20076;-68
2021/04/14 10:31:23;;;;;;;9.40;5.43;;;;;;;;;;5042120;28;20013;-69
2021/04/14 10:33:49;;;;;;;5.32;4.57;;;;;;;;;;5039573;28;20014;-70
2021/04/14 10:36:20;;;;;;;6.88;4.63;;;;;;;;;;5034472;28;20021;-67
2021/04/14 10:38:46;;;;;;;6.78;5.20;;;;;;;;;;5044683;28;20440;-69
2021/04/14 10:41:13;;;;;;;6.63;5.00;;;;;;;;;;5042618;28;20021;-68
2021/04/14 10:43:38;;;;;;;6.45;5.30;;;;;;;;;;5049024;28;20466;-69
2021/04/14 10:46:05;;;;;;;7.70;5.68;;;;;;;;;;5039881;28;20115;-68
2021/04/14 10:48:31;;;;;;;9.38;5.57;;;;;;;;;;5052284;28;20021;-69
2021/04/14 10:51:05;;;;;;;7.40;5.57;;;;;;;;;;5065733;28;20033;-68
2021/04/14 10:53:32;;;;;;;6.10;5.00;;;;;;;;;;5054336;28;20023;-68
2021/04/14 10:55:58;;;;;;;6.03;5.20;;;;;;;;;;5062844;28;20079;-69
2021/04/14 10:58:24;;;;;;;5.90;4.50;;;;;;;;;;5060942;28;20474;-67
2021/04/14 11:00:50;;;;;;;5.90;5.30;;;;;;;;;;5064543;28;20055;-65
2021/04/14 11:03:17;;;;;;;7.03;5.97;;;;;;;;;;5056483;28;20096;-68
2021/04/14 11:05:47;;;;;;;7.70;5.68;;;;;;;;;;5045896;28;20049;-69
2021/04/14 11:08:13;;;;;;;6.68;4.03;;;;;;;;;;5048494;28;20487;-67
2021/04/14 11:10:39;;;;;;;6.95;5.15;;;;;;;;;;5048023;28;20480;-67
2021/04/14 11:13:05;;;;;;;4.97;4.47;;;;;;;;;;5045862;28;20045;-65
2021/04/14 11:15:32;;;;;;;6.00;4.95;;;;;;;;;;5065767;28;20060;-65
2021/04/14 11:18:07;;;;;;;6.22;4.78;;;;;;;;;;5060268;28;20024;-66
2021/04/14 11:20:42;;;;;;;6.15;4.75;;;;;;;;;;5063869;28;20541;-67
2021/04/14 11:23:17;;;;;;;5.93;4.93;;;;;;;;;;5043030;28;20032;-67
2021/04/14 11:25:42;;;;;;;7.28;4.93;;;;;;;;;;5060074;28;20070;-68
2021/04/14 11:28:09;;;;;;;6.57;4.72;;;;;;;;;;5060270;28;20024;-67
2021/04/14 11:30:45;;;;;;;5.00;4.50;;;;;;;;;;5066572;28;20044;-68
2021/04/14 11:33:13;;;;;;;4.28;3.80;;;;;;;;;;5055360;28;20415;-68
2021/04/14 11:35:39;;;;;;;7.47;4.32;;;;;;;;;;5065427;28;20035;-67
2021/04/14 11:38:05;;;;;;;4.40;3.60;;;;;;;;;;5061475;28;20013;-66
2021/04/14 11:40:30;;;;;;;6.25;4.53;;;;;;;;;;5043213;28;20362;-70
2021/04/14 11:42:58;;;;;;;5.15;4.18;;;;;;;;;;5051879;28;20039;-69
2021/04/14 11:45:26;;;;;;;5.28;3.95;;;;;;;;;;5042579;28;20552;-72
2021/04/14 11:47:52;;;;;;;5.93;4.35;;;;;;;;;;5039269;28;20033;-71
2021/04/14 11:50:20;;;;;;;3.72;3.42;;;;;;;;;;5076239;28;20043;-69
2021/04/14 11:52:49;;;;;;;5.18;3.95;;;;;;;;;;5072042;28;20360;-69
2021/04/14 11:55:24;;;;;;;4.18;3.70;;;;;;;;;;5045315;28;20043;-67
2021/04/14 11:57:52;;;;;;;6.70;3.97;;;;;;;;;;5078493;28;20033;-70
2021/04/14 12:00:23;;;;;;;5.32;4.18;;;;;;;;;;5053783;28;20059;-67
2021/04/14 12:02:50;;;;;;;4.85;4.25;;;;;;;;;;5041212;28;20025;-67
2021/04/14 12:05:15;;;;;;;4.05;3.70;;;;;;;;;;5049115;28;20049;-67
2021/04/14 12:07:41;;;;;;;6.78;3.55;;;;;;;;;;5085888;28;20073;-68
2021/04/14 12:10:07;;;;;;;7.05;3.58;;;;;;;;;;5040413;28;20036;-67
2021/04/14 12:12:33;;;;;;;6.18;3.60;;;;;;;;;;5055505;28;20029;-68
2021/04/14 12:14:58;;;;;;;8.10;4.22;;;;;;;;;;5068428;28;20016;-67
2021/04/14 12:17:24;;;;;;;4.20;3.72;;;;;;;;;;5050459;28;20382;-70
2021/04/14 12:19:49;;;;;;;10.25;2.65;;;;;;;;;;5048069;28;20012;-70
2021/04/14 12:22:15;;;;;;;9.18;4.00;;;;;;;;;;5058050;28;20025;-69
2021/04/14 12:24:42;;;;;;;8.60;6.47;;;;;;;;;;5068044;28;20082;-74
2021/04/14 12:27:08;;;;;;;3.85;3.13;;;;;;;;;;5051757;28;20469;-69
2021/04/14 12:29:33;;;;;;;4.57;3.60;;;;;;;;;;5035512;28;20079;-69
2021/04/14 12:31:58;;;;;;;5.15;3.17;;;;;;;;;;5083729;28;20025;-69
2021/04/14 12:34:24;;;;;;;4.43;3.72;;;;;;;;;;5049549;28;20037;-68
2021/04/14 12:36:49;;;;;;;3.97;2.83;;;;;;;;;;5024630;28;20017;-66
2021/04/14 12:39:15;;;;;;;126.18;10.85;;;;;;;;;;5041978;28;20028;-70
2021/04/14 12:41:40;;;;;;;5.43;2.70;;;;;;;;;;5089903;28;20030;-68
2021/04/14 12:44:06;;;;;;;3.08;2.55;;;;;;;;;;5062740;28;20033;-74
2021/04/14 12:46:31;;;;;;;3.22;2.70;;;;;;;;;;5056431;28;20044;-69
2021/04/14 12:48:57;;;;;;;5.60;2.63;;;;;;;;;;5053366;28;20465;-67
2021/04/14 12:51:27;;;;;;;2.60;2.30;;;;;;;;;;5026766;28;20479;-69
2021/04/14 12:54:03;;;;;;;4.60;2.15;;;;;;;;;;5063437;28;20477;-72
2021/04/14 12:56:30;;;;;;;3.28;2.75;;;;;;;;;;5044384;28;20483;-71
2021/04/14 12:58:57;;;;;;;4.30;2.60;;;;;;;;;;5045351;28;20024;-68
2021/04/14 13:01:24;;;;;;;9.15;2.78;;;;;;;;;;5043383;28;20025;-73
2021/04/14 13:03:55;;;;;;;4.55;2.25;;;;;;;;;;5046027;28;20105;-69
2021/04/14 13:06:27;;;;;;;2.35;1.98;;;;;;;;;;5048992;28;20032;-69
2021/04/14 13:08:53;;;;;;;2.67;2.20;;;;;;;;;;5068766;28;20113;-71
2021/04/14 13:11:21;;;;;;;2.55;2.08;;;;;;;;;;5050275;28;20024;-71
2021/04/14 13:13:47;;;;;;;5.05;2.78;;;;;;;;;;5056875;28;20094;-72
2021/04/14 13:16:22;;;;;;;3.25;2.17;;;;;;;;;;5058816;28;20013;-72
2021/04/14 13:18:49;;;;;;;2.35;1.88;;;;;;;;;;5068468;28;20142;-72
2021/04/14 13:21:21;;;;;;;2.30;2.10;;;;;;;;;;5050874;28;20021;-70
2021/04/14 13:23:55;;;;;;;2.63;1.90;;;;;;;;;;5060969;28;20112;-68
2021/04/14 13:26:30;;;;;;;2.70;2.10;;;;;;;;;;5047136;28;20491;-69
2021/04/14 13:29:04;;;;;;;3.08;2.22;;;;;;;;;;5048095;23;20045;-68
2021/04/14 13:31:34;;;;;;;25.60;14.80;;;;;;;;;;5041772;28;20473;-70
2021/04/14 13:33:59;;;;;;;36.95;25.25;;;;;;;;;;5047682;28;20060;-67
2021/04/14 13:36:26;;;;;;;41.05;21.83;;;;;;;;;;5039932;28;20075;-67
2021/04/14 13:38:54;;;;;;;11.15;7.05;;;;;;;;;;5064301;28;20020;-68
2021/04/14 13:41:19;;;;;;;4.88;2.47;;;;;;;;;;5070470;28;20078;-70
2021/04/14 13:43:48;;;;;;;2.70;2.20;;;;;;;;;;5061539;28;20028;-70
2021/04/14 13:46:18;;;;;;;2.63;1.73;;;;;;;;;;5078767;28;20499;-67
2021/04/14 13:48:54;;;;;;;5.35;2.08;;;;;;;;;;5054265;28;20029;-69
2021/04/14 13:51:22;;;;;;;6.18;1.77;;;;;;;;;;5039344;28;20032;-70
2021/04/14 13:53:48;;;;;;;3.13;2.00;;;;;;;;;;5061238;28;20067;-71
2021/04/14 13:56:17;;;;;;;2.67;1.83;;;;;;;;;;5062792;28;20046;-69
2021/04/14 13:58:52;;;;;;;2.70;1.70;;;;;;;;;;5053203;28;20447;-68
2021/04/14 14:01:19;;;;;;;2.05;1.50;;;;;;;;;;5051970;28;20465;-68
2021/04/14 14:03:45;;;;;;;2.03;1.75;;;;;;;;;;5049783;28;20071;-67
2021/04/14 14:06:15;;;;;;;2.25;2.05;;;;;;;;;;5061298;28;20480;-67
2021/04/14 14:08:46;;;;;;;3.92;2.25;;;;;;;;;;5053547;28;20020;-67
2021/04/14 14:11:16;;;;;;;2.15;1.88;;;;;;;;;;5068323;28;20031;-66
2021/04/14 14:13:43;;;;;;;3.80;1.90;;;;;;;;;;5061884;28;20020;-66
2021/04/14 14:16:08;;;;;;;2.60;2.00;;;;;;;;;;5062017;28;20029;-68
2021/04/14 14:18:35;;;;;;;3.38;1.67;;;;;;;;;;5054961;28;20017;-65
2021/04/14 14:21:01;;;;;;;4.63;2.15;;;;;;;;;;5064721;28;20464;-64
2021/04/14 14:23:27;;;;;;;4.00;2.63;;;;;;;;;;5040390;28;20021;-63
2021/04/14 14:25:54;;;;;;;5.25;2.17;;;;;;;;;;5042115;28;20025;-64
2021/04/14 14:28:21;;;;;;;4.20;2.35;;;;;;;;;;5103405;23;20050;-63
2021/04/14 14:30:49;;;;;;;3.78;2.25;;;;;;;;;;5011261;28;20038;-65
2021/04/14 14:33:15;;;;;;;6.47;2.20;;;;;;;;;;5009471;28;20026;-65
2021/04/14 14:35:40;;;;;;;3.28;2.40;;;;;;;;;;5026116;28;20018;-62
2021/04/14 14:38:12;;;;;;;3.70;2.38;;;;;;;;;;5025567;28;20477;-65
2021/04/14 14:40:40;;;;;;;2.75;2.30;;;;;;;;;;5018470;28;20547;-64
2021/04/14 14:43:05;;;;;;;2.67;2.30;;;;;;;;;;5016850;28;20079;-63
